createdAt,value
2023-02-02T00:00:45.420Z,2.75
2023-02-02T00:02:46.911Z,3.60
2023-02-02T00:04:48.412Z,3.40
2023-02-02T00:06:50.266Z,2.90
2023-02-02T00:08:52.254Z,2.90
2023-02-02T00:10:53.704Z,3.75
2023-02-02T00:12:57.973Z,3.75
2023-02-02T00:14:59.550Z,3.22
2023-02-02T00:17:01.040Z,2.53
2023-02-02T00:19:10.337Z,2.97
2023-02-02T00:21:11.792Z,3.35
2023-02-02T00:23:13.227Z,2.78
2023-02-02T00:25:14.691Z,3.15
2023-02-02T00:27:16.153Z,3.75
2023-02-02T00:29:23.903Z,3.45
2023-02-02T00:31:25.478Z,2.63
2023-02-02T00:33:26.967Z,2.35
2023-02-02T00:35:28.446Z,4.00
2023-02-02T00:37:29.887Z,3.65
2023-02-02T00:39:31.365Z,3.75
2023-02-02T00:41:32.833Z,3.40
2023-02-02T00:43:34.627Z,2.92
2023-02-02T00:45:36.781Z,3.78
2023-02-02T00:47:38.246Z,3.00
2023-02-02T00:49:39.732Z,3.53
2023-02-02T00:51:41.207Z,2.67
2023-02-02T00:53:42.650Z,2.97
2023-02-02T00:55:44.380Z,3.33
2023-02-02T00:57:46.239Z,3.45
2023-02-02T00:59:47.669Z,2.97
2023-02-02T01:01:49.182Z,2.38
2023-02-02T01:03:50.799Z,2.05
2023-02-02T01:05:52.313Z,1.90
2023-02-02T01:07:53.790Z,3.88
2023-02-02T01:09:55.244Z,2.45
2023-02-02T01:11:57.254Z,2.28
2023-02-02T01:13:58.719Z,2.03
2023-02-02T01:16:02.037Z,2.70
2023-02-02T01:18:03.625Z,2.03
2023-02-02T01:20:07.006Z,2.15
2023-02-02T01:22:09.261Z,2.42
2023-02-02T01:24:10.683Z,2.33
2023-02-02T01:26:13.552Z,2.63
2023-02-02T01:28:15.010Z,2.13
2023-02-02T01:30:16.550Z,3.13
2023-02-02T01:32:18.078Z,3.00
2023-02-02T01:34:19.640Z,2.95
2023-02-02T01:36:23.214Z,2.72
2023-02-02T01:38:25.129Z,3.53
2023-02-02T01:40:26.672Z,2.85
2023-02-02T01:42:28.223Z,2.90
2023-02-02T01:44:53.211Z,4.28
2023-02-02T01:46:54.663Z,3.42
2023-02-02T01:49:11.110Z,2.80
2023-02-02T01:51:17.319Z,2.80
2023-02-02T01:53:19.966Z,3.33
2023-02-02T01:55:25.151Z,2.88
2023-02-02T01:57:42.271Z,3.22
2023-02-02T01:59:46.467Z,3.10
2023-02-02T02:01:49.216Z,3.53
2023-02-02T02:03:50.717Z,3.33
2023-02-02T02:06:00.489Z,3.03
2023-02-02T02:08:13.646Z,3.20
2023-02-02T02:10:17.638Z,3.47
2023-02-02T02:12:19.070Z,3.17
2023-02-02T02:14:40.284Z,3.03
2023-02-02T02:16:47.270Z,2.40
2023-02-02T02:18:57.107Z,2.53
2023-02-02T02:21:35.383Z,2.92
2023-02-02T02:24:31.733Z,3.35
2023-02-02T02:26:35.985Z,3.33
2023-02-02T02:29:04.980Z,3.55
2023-02-02T02:31:44.103Z,3.60
2023-02-02T02:34:09.662Z,2.78
2023-02-02T02:36:20.791Z,2.90
2023-02-02T02:38:47.775Z,3.03
2023-02-02T02:40:58.107Z,2.58
2023-02-02T02:43:05.281Z,2.45
2023-02-02T02:45:08.381Z,2.15
2023-02-02T02:47:10.613Z,2.85
2023-02-02T02:49:13.719Z,2.83
2023-02-02T02:51:40.033Z,2.53
2023-02-02T02:53:41.572Z,2.90
2023-02-02T02:55:53.423Z,3.80
2023-02-02T02:58:16.371Z,3.10
2023-02-02T03:00:32.419Z,3.35
2023-02-02T03:02:45.668Z,2.88
2023-02-02T03:05:02.875Z,3.45
2023-02-02T03:07:10.398Z,2.42
2023-02-02T03:09:18.136Z,2.42
2023-02-02T03:11:20.663Z,3.22
2023-02-02T03:13:22.510Z,2.70
2023-02-02T03:15:24.709Z,3.40
2023-02-02T03:17:28.072Z,2.55
2023-02-02T03:19:29.555Z,3.33
2023-02-02T03:21:32.232Z,3.08
2023-02-02T03:23:34.406Z,2.83
2023-02-02T03:25:35.987Z,2.60
2023-02-02T03:27:38.950Z,2.40
2023-02-02T03:29:40.405Z,2.28
2023-02-02T03:31:42.009Z,2.50
2023-02-02T03:33:43.744Z,3.25
2023-02-02T03:35:45.294Z,2.97
2023-02-02T03:37:47.511Z,3.53
2023-02-02T03:39:49.016Z,2.58
2023-02-02T03:41:50.462Z,3.63
2023-02-02T03:43:51.895Z,2.92
2023-02-02T03:46:01.765Z,3.40
2023-02-02T03:48:05.475Z,2.95
2023-02-02T03:50:09.832Z,2.58
2023-02-02T03:52:11.440Z,3.47
2023-02-02T03:54:13.862Z,3.17
2023-02-02T03:56:16.121Z,2.50
2023-02-02T03:58:17.680Z,2.85
2023-02-02T04:00:19.512Z,2.97
2023-02-02T04:02:21.007Z,3.05
2023-02-02T04:04:22.519Z,3.20
2023-02-02T04:06:24.733Z,2.95
2023-02-02T04:08:26.311Z,3.20
2023-02-02T04:10:27.826Z,4.20
2023-02-02T04:12:29.274Z,3.13
2023-02-02T04:14:30.752Z,2.83
2023-02-02T04:16:34.891Z,3.40
2023-02-02T04:18:39.241Z,3.22
2023-02-02T04:20:40.707Z,2.85
2023-02-02T04:22:42.168Z,3.75
2023-02-02T04:24:43.642Z,2.97
2023-02-02T04:26:45.522Z,3.40
2023-02-02T04:28:47.003Z,2.83
2023-02-02T04:30:48.445Z,4.95
2023-02-02T04:32:51.390Z,2.78
2023-02-02T04:34:52.872Z,4.30
2023-02-02T04:36:54.321Z,2.78
2023-02-02T04:38:55.929Z,3.67
2023-02-02T04:40:57.395Z,3.50
2023-02-02T04:42:58.883Z,4.57
2023-02-02T04:45:00.318Z,4.10
2023-02-02T04:47:01.790Z,2.63
2023-02-02T04:49:03.267Z,3.40
2023-02-02T04:51:07.204Z,3.17
2023-02-02T04:53:08.652Z,4.20
2023-02-02T04:55:10.115Z,3.50
2023-02-02T04:57:11.579Z,2.30
2023-02-02T04:59:13.058Z,4.03
2023-02-02T05:01:20.792Z,3.45
2023-02-02T05:03:22.292Z,3.58
2023-02-02T05:05:24.031Z,3.00
2023-02-02T05:07:25.663Z,3.92
2023-02-02T05:09:27.243Z,3.22
2023-02-02T05:11:28.733Z,3.08
2023-02-02T05:13:30.189Z,3.22
2023-02-02T05:15:31.641Z,3.45
2023-02-02T05:17:33.374Z,2.92
2023-02-02T05:19:34.884Z,3.60
2023-02-02T05:21:36.331Z,3.90
2023-02-02T05:23:37.797Z,2.90
2023-02-02T05:25:39.242Z,3.80
2023-02-02T05:27:44.111Z,3.53
2023-02-02T05:29:47.321Z,3.03
2023-02-02T05:31:48.810Z,3.78
2023-02-02T05:33:50.302Z,3.20
2023-02-02T05:35:52.793Z,3.33
2023-02-02T05:37:54.249Z,4.20
2023-02-02T05:39:55.747Z,3.55
2023-02-02T05:41:57.175Z,3.55
2023-02-02T05:44:02.168Z,3.72
2023-02-02T05:46:03.778Z,5.20
2023-02-02T05:48:05.432Z,3.65
2023-02-02T05:50:07.237Z,3.85
2023-02-02T05:52:16.091Z,4.35
2023-02-02T05:56:21.974Z,3.58
2023-02-02T05:58:23.737Z,3.55
2023-02-02T06:00:25.193Z,3.65
2023-02-02T06:02:26.756Z,3.92
2023-02-02T06:04:28.317Z,3.20
2023-02-02T06:06:29.752Z,4.10
2023-02-02T06:08:31.222Z,4.82
2023-02-02T06:10:32.700Z,3.95
2023-02-02T06:12:34.219Z,3.33
2023-02-02T06:14:35.876Z,2.97
2023-02-02T06:16:37.507Z,3.72
2023-02-02T06:18:39.105Z,3.50
2023-02-02T06:20:40.611Z,3.40
2023-02-02T06:22:43.832Z,4.30
2023-02-02T06:24:45.387Z,3.72
2023-02-02T06:26:46.895Z,4.25
2023-02-02T06:28:52.704Z,4.38
2023-02-02T06:30:54.278Z,4.97
2023-02-02T06:32:55.860Z,3.22
2023-02-02T06:34:57.323Z,3.47
2023-02-02T06:36:58.772Z,4.78
2023-02-02T06:39:00.325Z,3.20
2023-02-02T06:41:02.625Z,3.47
2023-02-02T06:43:04.302Z,5.30
2023-02-02T06:45:06.133Z,3.58
2023-02-02T06:47:07.648Z,3.78
2023-02-02T06:49:09.172Z,3.63
2023-02-02T06:51:10.649Z,3.08
2023-02-02T06:53:12.101Z,3.70
2023-02-02T06:55:13.674Z,3.28
2023-02-02T06:57:15.116Z,5.00
2023-02-02T06:59:16.615Z,4.47
2023-02-02T07:01:18.204Z,5.05
2023-02-02T07:03:21.444Z,3.88
2023-02-02T07:05:24.350Z,3.20
2023-02-02T07:07:26.114Z,3.90
2023-02-02T07:09:27.607Z,4.10
2023-02-02T07:11:29.609Z,3.65
2023-02-02T07:13:31.755Z,4.00
2023-02-02T07:15:34.336Z,4.20
2023-02-02T07:17:35.842Z,3.83
2023-02-02T07:19:37.354Z,4.57
2023-02-02T07:21:38.857Z,5.05
2023-02-02T07:23:40.341Z,3.40
2023-02-02T07:25:43.837Z,3.92
2023-02-02T07:27:47.808Z,3.13
2023-02-02T07:29:49.311Z,3.92
2023-02-02T07:31:51.291Z,3.90
2023-02-02T07:33:53.844Z,3.45
2023-02-02T07:35:55.370Z,3.38
2023-02-02T07:37:57.378Z,4.93
2023-02-02T07:39:58.888Z,3.85
2023-02-02T07:42:00.379Z,5.38
2023-02-02T07:44:01.965Z,4.70
2023-02-02T07:46:06.576Z,4.05
2023-02-02T07:48:08.113Z,3.53
2023-02-02T07:50:10.148Z,3.92
2023-02-02T07:52:11.659Z,3.42
2023-02-02T07:54:13.302Z,3.20
2023-02-02T07:56:17.243Z,4.20
2023-02-02T07:58:18.760Z,4.00
2023-02-02T08:00:20.779Z,3.40
2023-02-02T08:02:22.230Z,3.53
2023-02-02T08:04:23.695Z,3.28
2023-02-02T08:06:34.105Z,3.28
2023-02-02T08:08:35.591Z,3.30
2023-02-02T08:10:37.097Z,4.20
2023-02-02T08:12:38.579Z,4.28
2023-02-02T08:14:40.068Z,3.42
2023-02-02T08:16:41.580Z,3.70
2023-02-02T08:18:43.951Z,3.20
2023-02-02T08:20:45.487Z,3.95
2023-02-02T08:22:46.950Z,3.45
2023-02-02T08:24:48.490Z,4.35
2023-02-02T08:26:50.087Z,2.63
2023-02-02T08:29:03.969Z,3.30
2023-02-02T08:31:11.563Z,2.70
2023-02-02T08:33:13.549Z,3.60
2023-02-02T08:35:15.050Z,2.90
2023-02-02T08:37:16.515Z,3.63
2023-02-02T08:39:17.982Z,3.88
2023-02-02T08:41:22.683Z,2.92
2023-02-02T08:43:24.236Z,3.42
2023-02-02T08:46:03.874Z,3.00
2023-02-02T08:47:49.253Z,3.17
2023-02-02T08:49:55.341Z,3.40
2023-02-02T08:51:56.837Z,3.17
2023-02-02T08:53:58.339Z,3.70
2023-02-02T08:56:06.646Z,3.22
2023-02-02T08:58:08.171Z,3.42
2023-02-02T09:00:11.700Z,3.35
2023-02-02T09:02:13.878Z,4.35
2023-02-02T09:04:18.441Z,2.53
2023-02-02T09:06:21.211Z,2.78
2023-02-02T09:08:22.689Z,2.63
2023-02-02T09:10:24.179Z,3.63
2023-02-02T09:12:25.757Z,2.72
2023-02-02T09:14:27.400Z,2.75
2023-02-02T09:16:30.063Z,3.50
2023-02-02T09:18:31.693Z,3.45
2023-02-02T09:20:33.360Z,3.35
2023-02-02T09:22:34.991Z,2.95
2023-02-02T09:24:36.543Z,3.17
2023-02-02T09:26:40.558Z,3.35
2023-02-02T09:28:45.196Z,2.75
2023-02-02T09:30:46.676Z,3.45
2023-02-02T09:32:51.279Z,2.88
2023-02-02T09:34:52.765Z,3.20
2023-02-02T09:36:54.364Z,2.55
2023-02-02T09:38:55.933Z,2.80
2023-02-02T09:40:57.401Z,3.42
2023-02-02T09:43:18.030Z,2.17
2023-02-02T09:45:36.314Z,2.63
2023-02-02T09:48:20.203Z,4.18
2023-02-02T09:50:40.881Z,1.98
2023-02-02T09:53:08.027Z,2.50
2023-02-02T09:55:25.278Z,3.08
2023-02-02T09:57:36.701Z,2.60
2023-02-02T09:59:41.567Z,2.30
2023-02-02T10:01:45.144Z,2.10
2023-02-02T10:04:15.624Z,2.15
2023-02-02T10:06:35.724Z,2.83
2023-02-02T10:08:44.263Z,2.70
2023-02-02T10:10:47.119Z,1.83
2023-02-02T10:12:59.884Z,2.50
2023-02-02T10:15:17.840Z,2.63
2023-02-02T10:17:52.984Z,2.88
2023-02-02T10:20:01.119Z,2.50
2023-02-02T10:22:06.477Z,2.75
2023-02-02T10:24:17.782Z,2.63
2023-02-02T10:26:23.527Z,2.30
2023-02-02T10:28:33.882Z,2.20
2023-02-02T10:30:59.202Z,2.22
2023-02-02T10:33:06.930Z,2.92
2023-02-02T10:35:37.151Z,2.38
2023-02-02T10:38:07.436Z,1.92
2023-02-02T10:40:41.586Z,2.28
2023-02-02T10:43:20.191Z,2.45
2023-02-02T10:45:22.222Z,3.38
2023-02-02T10:47:27.964Z,2.53
2023-02-02T10:49:40.082Z,2.95
2023-02-02T10:51:50.324Z,2.78
2023-02-02T10:53:57.513Z,2.70
2023-02-02T10:56:06.935Z,2.78
2023-02-02T10:58:11.219Z,2.10
2023-02-02T11:00:39.092Z,2.67
2023-02-02T11:02:40.626Z,2.08
2023-02-02T11:05:00.565Z,3.15
2023-02-02T11:07:02.098Z,2.28
2023-02-02T11:09:04.988Z,2.55
2023-02-02T11:11:27.799Z,2.45
2023-02-02T11:13:37.102Z,3.30
2023-02-02T11:15:38.614Z,2.95
2023-02-02T11:17:40.196Z,2.55
2023-02-02T11:19:41.673Z,2.20
2023-02-02T11:21:47.626Z,2.90
2023-02-02T11:24:19.364Z,2.80
2023-02-02T11:26:22.932Z,2.70
2023-02-02T11:28:30.229Z,1.83
2023-02-02T11:30:35.827Z,2.63
2023-02-02T11:32:38.043Z,2.97
2023-02-02T11:34:39.535Z,2.15
2023-02-02T11:36:41.058Z,2.70
2023-02-02T11:38:42.525Z,2.88
2023-02-02T11:40:46.242Z,2.90
2023-02-02T11:42:48.397Z,2.80
2023-02-02T11:44:55.751Z,2.60
2023-02-02T11:46:57.505Z,3.65
2023-02-02T11:49:13.464Z,3.05
2023-02-02T11:51:23.607Z,2.88
2023-02-02T11:53:34.019Z,3.42
2023-02-02T11:55:35.688Z,2.22
2023-02-02T11:57:37.253Z,3.65
2023-02-02T11:59:43.769Z,2.55
2023-02-02T12:01:45.318Z,2.95
2023-02-02T12:03:48.613Z,2.35
2023-02-02T12:05:50.316Z,3.38
2023-02-02T12:07:51.826Z,3.55
2023-02-02T12:09:57.015Z,2.45
2023-02-02T12:12:07.516Z,2.78
2023-02-02T12:14:21.326Z,2.53
2023-02-02T12:16:37.616Z,2.67
2023-02-02T12:18:39.142Z,3.08
2023-02-02T12:21:02.624Z,3.20
2023-02-02T12:23:12.856Z,2.40
2023-02-02T12:25:14.278Z,3.25
2023-02-02T12:27:56.054Z,3.20
2023-02-02T12:30:08.808Z,2.70
2023-02-02T12:32:30.027Z,3.20
2023-02-02T12:35:05.551Z,3.65
2023-02-02T12:37:27.163Z,2.78
2023-02-02T12:39:52.705Z,4.63
2023-02-02T12:42:06.295Z,3.05
2023-02-02T12:45:04.176Z,2.40
2023-02-02T12:47:22.646Z,2.88
2023-02-02T12:49:42.366Z,2.65
2023-02-02T12:52:19.494Z,3.58
2023-02-02T12:54:54.534Z,3.25
2023-02-02T12:57:23.007Z,2.63
2023-02-02T12:59:57.864Z,2.80
2023-02-02T13:02:17.808Z,2.58
2023-02-02T13:04:26.982Z,2.10
2023-02-02T13:06:46.997Z,2.17
2023-02-02T13:08:58.671Z,3.10
2023-02-02T13:11:06.693Z,2.30
2023-02-02T13:13:16.906Z,2.30
2023-02-02T13:15:27.322Z,3.13
2023-02-02T13:17:46.632Z,2.30
2023-02-02T13:19:54.652Z,2.25
2023-02-02T13:21:59.420Z,3.38
2023-02-02T13:24:05.923Z,2.05
2023-02-02T13:26:15.771Z,2.42
2023-02-02T13:28:45.176Z,2.45
2023-02-02T13:30:49.928Z,2.38
2023-02-02T13:32:53.290Z,1.90
2023-02-02T13:35:17.844Z,2.42
2023-02-02T13:37:37.559Z,2.10
2023-02-02T13:39:45.950Z,2.03
2023-02-02T13:41:49.771Z,2.28
2023-02-02T13:44:04.938Z,2.10
2023-02-02T13:46:24.288Z,2.35
2023-02-02T13:48:31.513Z,2.08
2023-02-02T13:50:45.808Z,2.25
2023-02-02T13:52:54.916Z,3.03
2023-02-02T13:55:30.108Z,2.20
2023-02-02T13:57:59.268Z,2.25
2023-02-02T14:00:12.217Z,2.03
2023-02-02T14:02:28.442Z,1.90
2023-02-02T14:04:31.540Z,2.80
2023-02-02T14:06:56.251Z,2.17
2023-02-02T14:09:04.626Z,2.30
2023-02-02T14:11:08.123Z,2.25
2023-02-02T14:13:32.527Z,2.47
2023-02-02T14:15:39.400Z,2.47
2023-02-02T14:17:41.064Z,1.90
2023-02-02T14:19:56.487Z,1.88
2023-02-02T14:21:59.261Z,2.25
2023-02-02T14:24:22.555Z,2.38
2023-02-02T14:26:40.950Z,1.70
2023-02-02T14:28:46.163Z,1.63
2023-02-02T14:31:25.532Z,2.00
2023-02-02T14:33:38.845Z,2.67
2023-02-02T14:35:46.087Z,2.13
2023-02-02T14:37:52.929Z,2.20
2023-02-02T14:40:29.890Z,2.60
2023-02-02T14:42:58.956Z,2.03
2023-02-02T14:45:22.480Z,2.50
2023-02-02T14:47:48.328Z,2.25
2023-02-02T14:49:50.410Z,1.98
2023-02-02T14:51:55.657Z,1.90
2023-02-02T14:54:01.227Z,1.60
2023-02-02T14:56:14.443Z,1.77
2023-02-02T14:58:31.058Z,2.30
2023-02-02T15:00:35.081Z,2.13
2023-02-02T15:02:38.121Z,1.95
2023-02-02T15:04:39.670Z,1.60
2023-02-02T15:06:43.071Z,2.33
2023-02-02T15:08:44.833Z,2.50
2023-02-02T15:10:53.747Z,2.15
2023-02-02T15:13:10.855Z,2.20
2023-02-02T15:15:25.586Z,1.90
2023-02-02T15:17:48.688Z,1.88
2023-02-02T15:20:05.482Z,2.05
2023-02-02T15:22:31.443Z,2.03
2023-02-02T15:24:36.181Z,2.53
2023-02-02T15:26:42.830Z,1.98
2023-02-02T15:28:53.146Z,2.20
2023-02-02T15:31:13.285Z,2.35
2023-02-02T15:33:30.602Z,2.40
2023-02-02T15:35:32.783Z,2.78
2023-02-02T15:37:41.738Z,1.75
2023-02-02T15:39:48.950Z,2.30
2023-02-02T15:42:11.790Z,2.15
2023-02-02T15:44:21.691Z,3.35
2023-02-02T15:46:32.297Z,2.40
2023-02-02T15:48:34.788Z,2.15
2023-02-02T15:50:37.460Z,1.90
2023-02-02T15:52:47.525Z,2.25
2023-02-02T15:54:57.545Z,2.40
2023-02-02T15:57:02.936Z,2.38
2023-02-02T15:59:19.910Z,2.38
2023-02-02T16:01:25.969Z,2.20
2023-02-02T16:03:38.387Z,2.70
2023-02-02T16:05:55.842Z,2.45
2023-02-02T16:08:06.057Z,3.00
2023-02-02T16:10:08.428Z,2.15
2023-02-02T16:12:22.033Z,2.53
2023-02-02T16:14:23.868Z,2.47
2023-02-02T16:16:29.008Z,2.83
2023-02-02T16:18:30.865Z,2.38
2023-02-02T16:20:35.142Z,2.47
2023-02-02T16:22:38.028Z,2.72
2023-02-02T16:24:44.074Z,2.60
2023-02-02T16:26:45.881Z,2.28
2023-02-02T16:28:47.440Z,2.05
2023-02-02T16:30:51.765Z,2.08
2023-02-02T16:32:53.658Z,2.05
2023-02-02T16:34:55.376Z,2.17
2023-02-02T16:37:22.272Z,1.95
2023-02-02T16:39:24.172Z,1.95
2023-02-02T16:41:34.311Z,2.00
2023-02-02T16:43:38.119Z,1.65
2023-02-02T16:45:55.358Z,2.38
2023-02-02T16:48:19.686Z,2.35
2023-02-02T16:50:29.787Z,2.03
2023-02-02T16:52:32.279Z,2.17
2023-02-02T16:54:34.111Z,2.70
2023-02-02T16:56:39.955Z,2.67
2023-02-02T16:58:45.536Z,2.33
2023-02-02T17:01:14.961Z,2.92
2023-02-02T17:03:18.182Z,2.10
2023-02-02T17:05:26.114Z,2.08
2023-02-02T17:07:29.653Z,2.28
2023-02-02T17:09:37.312Z,2.20
2023-02-02T17:11:38.810Z,2.58
2023-02-02T17:13:41.619Z,2.22
2023-02-02T17:15:43.087Z,1.98
2023-02-02T17:17:47.754Z,2.88
2023-02-02T17:19:49.680Z,1.80
2023-02-02T17:21:51.354Z,1.88
2023-02-02T17:23:56.295Z,2.78
2023-02-02T17:25:58.550Z,1.65
2023-02-02T17:28:00.803Z,2.28
2023-02-02T17:30:03.703Z,1.90
2023-02-02T17:32:05.562Z,1.80
2023-02-02T17:34:16.960Z,1.83
2023-02-02T17:36:18.431Z,2.65
2023-02-02T17:38:21.505Z,2.00
2023-02-02T17:40:24.307Z,2.30
2023-02-02T17:42:30.582Z,2.70
2023-02-02T17:44:32.087Z,2.25
2023-02-02T17:46:35.083Z,3.05
2023-02-02T17:48:37.187Z,3.55
2023-02-02T17:50:39.579Z,3.15
2023-02-02T17:52:41.338Z,2.65
2023-02-02T17:54:42.786Z,3.20
2023-02-02T17:56:44.367Z,2.60
2023-02-02T17:58:45.799Z,3.60
2023-02-02T18:00:53.792Z,3.00
2023-02-02T18:03:01.381Z,3.05
2023-02-02T18:05:04.772Z,2.72
2023-02-02T18:07:07.563Z,1.80
2023-02-02T18:09:09.659Z,2.28
2023-02-02T18:11:13.458Z,2.00
2023-02-02T18:13:16.806Z,2.10
2023-02-02T18:15:18.333Z,1.95
2023-02-02T18:17:21.063Z,2.17
2023-02-02T18:19:22.565Z,2.10
2023-02-02T18:21:26.418Z,2.17
2023-02-02T18:23:28.395Z,2.45
2023-02-02T18:25:29.878Z,2.80
2023-02-02T18:27:31.603Z,2.70
2023-02-02T18:29:33.119Z,3.42
2023-02-02T18:31:34.631Z,2.85
2023-02-02T18:33:37.212Z,2.72
2023-02-02T18:35:42.564Z,2.85
2023-02-02T18:37:44.028Z,2.97
2023-02-02T18:39:45.511Z,3.40
2023-02-02T18:41:46.971Z,3.05
2023-02-02T18:43:48.516Z,3.47
2023-02-02T18:46:13.459Z,3.08
2023-02-02T18:48:16.186Z,3.70
2023-02-02T18:50:17.708Z,3.17
2023-02-02T18:52:19.687Z,3.30
2023-02-02T18:54:22.296Z,3.63
2023-02-02T18:56:23.765Z,3.53
2023-02-02T18:58:27.550Z,4.50
2023-02-02T19:00:29.062Z,3.65
2023-02-02T19:02:30.596Z,3.88
2023-02-02T19:04:32.252Z,5.10
2023-02-02T19:06:52.185Z,3.28
2023-02-02T19:08:54.771Z,4.07
2023-02-02T19:11:01.968Z,3.70
2023-02-02T19:13:19.444Z,3.53
2023-02-02T19:15:21.158Z,4.47
2023-02-02T19:17:27.974Z,4.57
2023-02-02T19:19:33.432Z,4.60
2023-02-02T19:21:34.904Z,4.53
2023-02-02T19:23:37.863Z,4.95
2023-02-02T19:25:46.272Z,4.95
2023-02-02T19:27:48.068Z,4.47
2023-02-02T19:29:52.875Z,5.00
2023-02-02T19:32:04.987Z,5.68
2023-02-02T19:34:12.369Z,6.30
2023-02-02T19:36:20.310Z,6.07
2023-02-02T19:38:22.737Z,6.47
2023-02-02T19:40:27.826Z,5.88
2023-02-02T19:42:29.513Z,5.80
2023-02-02T19:44:34.092Z,5.32
2023-02-02T19:46:42.326Z,5.80
2023-02-02T19:48:44.028Z,4.75
2023-02-02T19:50:46.551Z,5.07
2023-02-02T19:52:51.856Z,5.05
2023-02-02T19:54:53.941Z,5.35
2023-02-02T19:57:01.015Z,5.13
2023-02-02T19:59:02.683Z,5.50
2023-02-02T20:01:17.436Z,5.65
2023-02-02T20:03:20.636Z,5.20
2023-02-02T20:05:44.883Z,5.90
2023-02-02T20:07:48.050Z,5.70
2023-02-02T20:09:50.270Z,6.28
2023-02-02T20:11:53.167Z,6.05
2023-02-02T20:13:54.631Z,6.53
2023-02-02T20:16:03.566Z,5.82
2023-02-02T20:18:13.840Z,6.20
2023-02-02T20:20:26.382Z,6.60
2023-02-02T20:22:29.725Z,7.30
2023-02-02T20:24:36.879Z,7.15
2023-02-02T20:26:39.310Z,7.63
2023-02-02T20:28:45.403Z,7.50
2023-02-02T20:30:46.971Z,7.55
2023-02-02T20:32:55.054Z,7.30
2023-02-02T20:34:59.328Z,7.07
2023-02-02T20:37:12.750Z,7.60
2023-02-02T20:39:26.422Z,7.95
2023-02-02T20:41:27.941Z,8.30
2023-02-02T20:43:29.393Z,7.65
2023-02-02T20:45:30.870Z,8.40
2023-02-02T20:47:32.610Z,8.18
2023-02-02T20:49:35.146Z,8.00
2023-02-02T20:51:40.535Z,7.80
2023-02-02T20:53:42.017Z,7.80
2023-02-02T20:55:44.874Z,8.05
2023-02-02T20:57:46.416Z,8.35
2023-02-02T20:59:48.029Z,8.48
2023-02-02T21:01:50.513Z,8.63
2023-02-02T21:03:52.168Z,9.20
2023-02-02T21:05:53.730Z,8.45
2023-02-02T21:07:55.440Z,9.15
2023-02-02T21:09:56.939Z,9.75
2023-02-02T21:11:58.407Z,9.85
2023-02-02T21:14:00.019Z,9.82
2023-02-02T21:16:01.530Z,9.85
2023-02-02T21:18:03.022Z,10.27
2023-02-02T21:20:05.084Z,10.20
2023-02-02T21:22:06.553Z,11.38
2023-02-02T21:24:08.139Z,12.10
2023-02-02T21:26:09.623Z,11.93
2023-02-02T21:28:11.206Z,12.60
2023-02-02T21:30:14.092Z,12.57
2023-02-02T21:32:15.695Z,13.18
2023-02-02T21:34:20.837Z,12.63
2023-02-02T21:36:45.577Z,13.32
2023-02-02T21:38:47.135Z,14.07
2023-02-02T21:40:49.969Z,12.95
2023-02-02T21:42:51.418Z,12.93
2023-02-02T21:45:25.308Z,13.75
2023-02-02T21:47:40.168Z,12.60
2023-02-02T21:49:41.684Z,11.60
2023-02-02T21:51:43.256Z,12.75
2023-02-02T21:53:44.960Z,11.77
2023-02-02T21:55:59.438Z,11.43
2023-02-02T21:58:19.006Z,11.13
2023-02-02T22:00:25.783Z,10.60
2023-02-02T22:02:38.912Z,10.60
2023-02-02T22:04:40.448Z,10.50
2023-02-02T22:06:45.967Z,10.43
2023-02-02T22:08:48.863Z,10.20
2023-02-02T22:10:50.403Z,11.05
2023-02-02T22:12:51.877Z,9.73
2023-02-02T22:14:59.460Z,8.75
2023-02-02T22:17:00.961Z,9.43
2023-02-02T22:19:11.882Z,9.60
2023-02-02T22:21:16.101Z,10.30
2023-02-02T22:23:22.214Z,9.80
2023-02-02T22:25:30.201Z,8.93
2023-02-02T22:27:55.431Z,9.27
2023-02-02T22:30:02.399Z,8.00
2023-02-02T22:32:03.905Z,8.20
2023-02-02T22:34:05.906Z,8.57
2023-02-02T22:36:07.765Z,7.45
2023-02-02T22:38:10.213Z,8.88
2023-02-02T22:40:12.416Z,8.13
2023-02-02T22:42:13.894Z,7.80
2023-02-02T22:44:15.369Z,7.80
2023-02-02T22:46:16.913Z,7.82
2023-02-02T22:48:18.856Z,7.05
2023-02-02T22:50:31.224Z,7.50
2023-02-02T22:52:32.680Z,7.82
2023-02-02T22:54:34.201Z,7.25
2023-02-02T22:56:35.640Z,7.18
2023-02-02T22:58:37.152Z,7.13
2023-02-02T23:00:38.678Z,8.25
2023-02-02T23:02:41.316Z,7.18
2023-02-02T23:04:42.787Z,8.10
2023-02-02T23:06:44.234Z,6.70
2023-02-02T23:08:46.064Z,6.50
2023-02-02T23:10:47.610Z,6.30
2023-02-02T23:12:49.995Z,7.05
2023-02-02T23:14:51.456Z,6.43
2023-02-02T23:16:52.920Z,6.82
2023-02-02T23:18:54.402Z,6.60
2023-02-02T23:20:55.834Z,6.72
2023-02-02T23:22:57.381Z,6.60
2023-02-02T23:24:59.096Z,5.93
2023-02-02T23:27:00.668Z,6.25
2023-02-02T23:29:02.214Z,6.13
2023-02-02T23:31:03.862Z,6.40
2023-02-02T23:33:05.371Z,6.75
2023-02-02T23:35:10.341Z,6.55
2023-02-02T23:37:12.276Z,6.70
2023-02-02T23:39:13.803Z,6.50
2023-02-02T23:41:15.253Z,6.28
2023-02-02T23:43:16.749Z,6.15
2023-02-02T23:45:18.283Z,6.55
2023-02-02T23:47:19.828Z,6.38
2023-02-02T23:49:21.580Z,7.07
2023-02-02T23:51:23.306Z,5.65
2023-02-02T23:53:24.977Z,5.88
2023-02-02T23:55:26.749Z,5.90
2023-02-02T23:57:28.445Z,5.80
2023-02-02T23:59:30.214Z,5.88
